createdAt,value
2019-06-07T00:00:38.024Z,17.38
2019-06-07T00:01:27.341Z,17.38
2019-06-07T00:02:26.325Z,17.34
2019-06-07T00:03:29.908Z,17.33
2019-06-07T00:04:26.336Z,17.31
2019-06-07T00:05:26.298Z,17.31
2019-06-07T00:06:26.359Z,17.34
2019-06-07T00:07:26.301Z,17.30
2019-06-07T00:08:29.046Z,17.30
2019-06-07T00:09:26.275Z,17.33
2019-06-07T00:10:36.126Z,17.34
2019-06-07T00:11:29.084Z,17.30
2019-06-07T00:12:26.235Z,17.33
2019-06-07T00:13:26.231Z,17.29
2019-06-07T00:14:26.236Z,17.27
2019-06-07T00:15:28.995Z,17.31
2019-06-07T00:16:26.178Z,17.34
2019-06-07T00:17:26.237Z,17.31
2019-06-07T00:18:26.385Z,17.30
2019-06-07T00:19:26.142Z,17.34
2019-06-07T00:20:26.188Z,17.30
2019-06-07T00:22:12.289Z,17.36
2019-06-07T00:22:33.017Z,17.36
2019-06-07T00:23:27.200Z,17.31
2019-06-07T00:24:26.131Z,17.27
2019-06-07T00:25:26.141Z,17.31
2019-06-07T00:26:26.067Z,17.33
2019-06-07T00:27:26.788Z,17.34
2019-06-07T00:28:26.124Z,17.34
2019-06-07T00:29:26.161Z,17.34
2019-06-07T00:30:45.946Z,17.39
2019-06-07T00:31:27.081Z,17.38
2019-06-07T00:32:26.016Z,17.36
2019-06-07T00:33:25.995Z,17.38
2019-06-07T00:34:26.051Z,17.39
2019-06-07T00:35:26.218Z,17.39
2019-06-07T00:36:25.972Z,17.34
2019-06-07T00:37:25.949Z,17.34
2019-06-07T00:38:25.957Z,17.39
2019-06-07T00:39:26.367Z,17.34
2019-06-07T00:40:31.725Z,17.39
2019-06-07T00:41:26.890Z,17.36
2019-06-07T00:42:25.879Z,17.42
2019-06-07T00:43:28.357Z,17.36
2019-06-07T00:44:25.865Z,17.38
2019-06-07T00:45:26.016Z,17.42
2019-06-07T00:46:25.845Z,17.36
2019-06-07T00:47:25.969Z,17.38
2019-06-07T00:48:32.165Z,17.41
2019-06-07T00:49:40.484Z,17.36
2019-06-07T00:50:26.799Z,17.38
2019-06-07T00:51:25.783Z,17.38
2019-06-07T00:53:31.235Z,17.38
2019-06-07T00:54:26.748Z,17.34
2019-06-07T00:55:27.657Z,17.41
2019-06-07T00:56:25.726Z,17.41
2019-06-07T00:57:25.719Z,17.36
2019-06-07T00:58:29.179Z,17.39
2019-06-07T00:59:29.535Z,17.42
2019-06-07T01:00:25.861Z,17.39
2019-06-07T01:01:25.836Z,17.44
2019-06-07T01:02:31.077Z,17.39
2019-06-07T01:03:26.639Z,17.44
2019-06-07T01:04:27.018Z,17.42
2019-06-07T01:05:31.033Z,17.42
2019-06-07T01:06:26.622Z,17.36
2019-06-07T01:07:25.619Z,17.38
2019-06-07T01:08:29.963Z,17.41
2019-06-07T01:09:25.791Z,17.39
2019-06-07T01:10:51.651Z,17.38
2019-06-07T01:11:26.557Z,17.38
2019-06-07T01:12:27.026Z,17.39
2019-06-07T01:13:26.984Z,17.49
2019-06-07T01:14:28.495Z,17.52
2019-06-07T01:15:29.147Z,17.51
2019-06-07T01:16:51.523Z,17.51
2019-06-07T01:17:39.206Z,17.51
2019-06-07T01:18:40.376Z,17.49
2019-06-07T01:19:27.880Z,17.51
2019-06-07T01:20:32.805Z,17.52
2019-06-07T01:21:29.688Z,17.49
2019-06-07T01:22:28.907Z,17.49
2019-06-07T01:24:03.283Z,17.44
2019-06-07T01:24:27.570Z,17.42
2019-06-07T01:25:26.335Z,17.36
2019-06-07T01:26:29.461Z,17.36
2019-06-07T01:27:25.619Z,17.34
2019-06-07T01:28:27.108Z,17.34
2019-06-07T01:29:29.461Z,17.26
2019-06-07T01:30:26.773Z,17.29
2019-06-07T01:31:27.894Z,17.26
2019-06-07T01:32:27.167Z,17.23
2019-06-07T01:33:38.279Z,17.26
2019-06-07T01:34:26.913Z,17.22
2019-06-07T01:35:25.674Z,17.15
2019-06-07T01:36:29.594Z,17.06
2019-06-07T01:37:27.992Z,17.12
2019-06-07T01:38:26.901Z,17.01
2019-06-07T01:39:29.768Z,16.99
2019-06-07T01:40:30.429Z,16.94
2019-06-07T01:41:30.122Z,16.96
2019-06-07T01:42:28.871Z,16.86
2019-06-07T01:43:28.463Z,16.78
2019-06-07T01:44:27.796Z,16.87
2019-06-07T01:45:26.971Z,16.84
2019-06-07T01:46:26.689Z,16.78
2019-06-07T01:47:28.762Z,16.75
2019-06-07T01:48:46.198Z,16.79
2019-06-07T01:49:28.107Z,16.76
2019-06-07T01:50:27.102Z,16.94
2019-06-07T01:51:27.877Z,16.89
2019-06-07T01:52:26.716Z,16.89
2019-06-07T01:53:26.489Z,16.84
2019-06-07T01:54:52.274Z,16.78
2019-06-07T01:55:28.834Z,16.84
2019-06-07T01:56:29.233Z,16.75
2019-06-07T01:57:38.324Z,16.76
2019-06-07T01:58:28.791Z,16.71
2019-06-07T01:59:25.621Z,16.66
2019-06-07T02:00:26.677Z,16.64
2019-06-07T02:01:26.622Z,16.49
2019-06-07T02:02:29.907Z,16.41
2019-06-07T02:03:29.368Z,16.58
2019-06-07T02:04:29.360Z,16.49
2019-06-07T02:05:30.494Z,16.38
2019-06-07T02:06:27.957Z,16.35
2019-06-07T02:07:30.362Z,16.42
2019-06-07T02:08:27.275Z,16.35
2019-06-07T02:09:28.413Z,16.29
2019-06-07T02:10:29.901Z,16.33
2019-06-07T02:11:26.724Z,16.33
2019-06-07T02:12:34.141Z,16.35
2019-06-07T02:13:27.871Z,16.36
2019-06-07T02:14:27.367Z,16.35
2019-06-07T02:15:27.997Z,16.29
2019-06-07T02:16:30.506Z,16.31
2019-06-07T02:17:28.207Z,16.24
2019-06-07T02:18:28.094Z,16.28
2019-06-07T02:19:26.781Z,16.24
2019-06-07T02:20:28.480Z,16.26
2019-06-07T02:21:28.095Z,16.23
2019-06-07T02:22:27.536Z,16.23
2019-06-07T02:23:28.255Z,16.13
2019-06-07T02:24:28.930Z,16.26
2019-06-07T02:25:38.355Z,16.17
2019-06-07T02:26:29.561Z,16.24
2019-06-07T02:27:27.432Z,16.17
2019-06-07T02:28:42.150Z,16.26
2019-06-07T02:29:28.108Z,16.21
2019-06-07T02:30:58.081Z,16.23
2019-06-07T02:31:28.661Z,16.16
2019-06-07T02:32:29.813Z,16.23
2019-06-07T02:33:28.957Z,16.15
2019-06-07T02:34:28.107Z,16.15
2019-06-07T02:35:30.917Z,16.13
2019-06-07T02:36:30.475Z,16.15
2019-06-07T02:37:27.615Z,16.04
2019-06-07T02:38:27.767Z,16.08
2019-06-07T02:39:28.195Z,16.09
2019-06-07T02:40:28.002Z,16.12
2019-06-07T02:41:27.201Z,16.10
2019-06-07T02:42:29.486Z,16.09
2019-06-07T02:43:28.200Z,16.10
2019-06-07T02:44:28.592Z,16.09
2019-06-07T02:45:28.770Z,16.08
2019-06-07T02:46:34.352Z,16.13
2019-06-07T02:47:28.000Z,16.01
2019-06-07T02:48:28.020Z,15.98
2019-06-07T02:49:30.551Z,15.98
2019-06-07T02:50:26.333Z,16.02
2019-06-07T02:51:32.333Z,16.00
2019-06-07T02:52:30.790Z,15.97
2019-06-07T02:53:27.051Z,16.04
2019-06-07T02:54:26.710Z,15.95
2019-06-07T02:55:27.309Z,16.00
2019-06-07T02:56:42.090Z,16.05
2019-06-07T02:57:28.323Z,16.00
2019-06-07T02:58:26.165Z,15.94
2019-06-07T02:59:47.282Z,15.98
2019-06-07T03:00:45.758Z,15.92
2019-06-07T03:01:27.650Z,16.00
2019-06-07T03:02:26.562Z,15.91
2019-06-07T03:03:28.363Z,15.95
2019-06-07T03:04:27.215Z,15.88
2019-06-07T03:05:25.149Z,15.86
2019-06-07T03:06:27.058Z,15.79
2019-06-07T03:07:27.687Z,15.90
2019-06-07T03:08:24.280Z,15.91
2019-06-07T03:09:24.268Z,15.94
2019-06-07T03:10:24.313Z,15.91
2019-06-07T03:11:24.419Z,15.84
2019-06-07T03:12:24.229Z,15.91
2019-06-07T03:13:24.221Z,16.00
2019-06-07T03:14:24.207Z,15.98
2019-06-07T03:15:36.919Z,16.05
2019-06-07T03:16:26.193Z,16.10
2019-06-07T03:17:24.174Z,16.09
2019-06-07T03:18:24.189Z,16.16
2019-06-07T03:19:24.152Z,16.17
2019-06-07T03:20:24.172Z,16.28
2019-06-07T03:21:24.147Z,16.31
2019-06-07T03:22:24.118Z,16.42
2019-06-07T03:23:26.342Z,16.38
2019-06-07T03:24:24.159Z,16.41
2019-06-07T03:25:24.087Z,16.41
2019-06-07T03:26:24.077Z,16.49
2019-06-07T03:27:34.621Z,16.42
2019-06-07T03:28:25.126Z,16.43
2019-06-07T03:29:24.065Z,16.47
2019-06-07T03:30:39.000Z,16.53
2019-06-07T03:31:27.513Z,16.47
2019-06-07T03:32:25.014Z,16.46
2019-06-07T03:33:24.018Z,16.43
2019-06-07T03:34:23.997Z,16.42
2019-06-07T03:35:23.976Z,16.53
2019-06-07T03:36:25.993Z,16.51
2019-06-07T03:37:23.965Z,16.51
2019-06-07T03:38:23.962Z,16.57
2019-06-07T03:39:25.225Z,16.60
2019-06-07T03:40:23.934Z,16.58
2019-06-07T03:41:23.926Z,16.68
2019-06-07T03:42:23.908Z,16.66
2019-06-07T03:43:24.142Z,16.78
2019-06-07T03:44:23.903Z,16.74
2019-06-07T03:45:23.870Z,16.81
2019-06-07T03:46:23.872Z,16.81
2019-06-07T03:47:23.848Z,16.86
2019-06-07T03:48:23.835Z,16.90
2019-06-07T03:49:23.836Z,16.87
2019-06-07T03:50:23.846Z,16.87
2019-06-07T03:51:26.659Z,16.96
2019-06-07T03:52:23.824Z,16.94
2019-06-07T03:53:23.784Z,16.97
2019-06-07T03:54:23.783Z,17.04
2019-06-07T03:55:23.779Z,17.05
2019-06-07T03:56:23.752Z,17.06
2019-06-07T03:57:23.740Z,17.19
2019-06-07T03:58:34.720Z,17.19
2019-06-07T03:59:24.719Z,17.19
2019-06-07T04:00:23.708Z,17.04
2019-06-07T04:01:23.715Z,17.04
2019-06-07T04:02:23.686Z,17.01
2019-06-07T04:03:33.478Z,16.97
2019-06-07T04:04:24.662Z,17.01
2019-06-07T04:05:23.659Z,16.97
2019-06-07T04:06:23.656Z,16.97
2019-06-07T04:07:23.639Z,16.93
2019-06-07T04:08:23.630Z,16.90
2019-06-07T04:09:23.620Z,16.86
2019-06-07T04:10:44.844Z,16.91
2019-06-07T04:11:24.598Z,16.89
2019-06-07T04:12:23.578Z,16.86
2019-06-07T04:13:23.571Z,16.91
2019-06-07T04:14:23.657Z,16.86
2019-06-07T04:15:23.542Z,16.83
2019-06-07T04:16:23.549Z,16.78
2019-06-07T04:17:23.527Z,16.72
2019-06-07T04:18:23.520Z,16.71
2019-06-07T04:19:23.526Z,16.78
2019-06-07T04:20:23.528Z,16.64
2019-06-07T04:21:42.552Z,16.60
2019-06-07T04:22:23.485Z,16.65
2019-06-07T04:23:28.092Z,16.68
2019-06-07T04:24:24.445Z,16.68
2019-06-07T04:25:23.435Z,16.53
2019-06-07T04:26:23.439Z,16.58
2019-06-07T04:27:23.417Z,16.53
2019-06-07T04:28:23.406Z,16.58
2019-06-07T04:29:33.903Z,16.61
2019-06-07T04:30:24.380Z,16.64
2019-06-07T04:31:23.381Z,16.61
2019-06-07T04:32:23.392Z,16.64
2019-06-07T04:33:23.382Z,16.64
2019-06-07T04:34:23.379Z,16.65
2019-06-07T04:35:23.341Z,16.58
2019-06-07T04:36:39.535Z,16.66
2019-06-07T04:37:24.329Z,16.76
2019-06-07T04:38:23.295Z,16.71
2019-06-07T04:39:23.295Z,16.74
2019-06-07T04:40:23.289Z,16.76
2019-06-07T04:41:23.276Z,16.72
2019-06-07T04:42:23.299Z,16.83
2019-06-07T04:43:23.250Z,16.84
2019-06-07T04:44:23.232Z,16.72
2019-06-07T04:45:34.066Z,16.89
2019-06-07T04:46:24.303Z,16.87
2019-06-07T04:47:23.222Z,17.01
2019-06-07T04:48:23.185Z,16.97
2019-06-07T04:49:23.177Z,16.89
2019-06-07T04:50:23.210Z,17.04
2019-06-07T04:51:24.396Z,17.04
2019-06-07T04:52:23.196Z,17.01
2019-06-07T04:53:23.142Z,17.04
2019-06-07T04:54:23.120Z,17.06
2019-06-07T04:55:23.111Z,17.08
2019-06-07T04:56:23.136Z,17.04
2019-06-07T04:57:23.095Z,17.09
2019-06-07T04:58:23.077Z,17.06
2019-06-07T05:00:01.109Z,17.22
2019-06-07T05:00:48.609Z,17.19
2019-06-07T05:01:27.765Z,17.19
2019-06-07T05:02:24.036Z,17.14
2019-06-07T05:03:23.119Z,17.09
2019-06-07T05:04:23.018Z,17.16
2019-06-07T05:05:23.003Z,17.09
2019-06-07T05:06:22.992Z,17.22
2019-06-07T05:07:23.059Z,17.19
2019-06-07T05:08:28.375Z,17.26
2019-06-07T05:09:23.957Z,17.29
2019-06-07T05:10:22.952Z,17.30
2019-06-07T05:11:22.943Z,17.30
2019-06-07T05:12:22.926Z,17.36
2019-06-07T05:13:25.122Z,17.41
2019-06-07T05:14:22.992Z,17.36
2019-06-07T05:15:22.899Z,17.30
2019-06-07T05:16:22.906Z,17.39
2019-06-07T05:17:22.877Z,17.36
2019-06-07T05:18:22.862Z,17.38
2019-06-07T05:19:22.849Z,17.44
2019-06-07T05:20:22.880Z,17.39
2019-06-07T05:21:22.827Z,17.56
2019-06-07T05:22:22.841Z,17.52
2019-06-07T05:24:02.528Z,17.49
2019-06-07T05:24:23.849Z,17.60
2019-06-07T05:25:22.786Z,17.65
2019-06-07T05:26:22.861Z,17.59
2019-06-07T05:27:22.760Z,17.54
2019-06-07T05:28:22.766Z,17.64
2019-06-07T05:29:22.738Z,17.65
2019-06-07T05:30:58.527Z,17.79
2019-06-07T05:31:23.759Z,17.82
2019-06-07T05:32:22.731Z,17.82
2019-06-07T05:33:22.694Z,17.76
2019-06-07T05:34:22.682Z,17.76
2019-06-07T05:35:22.708Z,17.76
2019-06-07T05:36:22.665Z,17.82
2019-06-07T05:37:22.832Z,17.80
2019-06-07T05:38:22.645Z,17.79
2019-06-07T05:39:22.645Z,17.87
2019-06-07T05:40:22.614Z,17.95
2019-06-07T05:41:22.608Z,17.92
2019-06-07T05:42:22.611Z,17.90
2019-06-07T05:43:22.613Z,17.97
2019-06-07T05:44:22.569Z,18.01
2019-06-07T05:45:22.555Z,18.00
2019-06-07T05:46:22.549Z,17.92
2019-06-07T05:47:22.585Z,17.85
2019-06-07T05:48:22.859Z,17.87
2019-06-07T05:49:22.513Z,17.90
2019-06-07T05:50:39.299Z,17.95
2019-06-07T05:51:23.489Z,17.92
2019-06-07T05:52:22.506Z,17.92
2019-06-07T05:53:22.488Z,17.94
2019-06-07T05:54:22.470Z,17.80
2019-06-07T05:55:22.454Z,17.85
2019-06-07T05:56:22.433Z,17.90
2019-06-07T05:57:22.468Z,18.03
2019-06-07T05:58:22.479Z,18.04
2019-06-07T05:59:22.412Z,18.08
2019-06-07T06:00:22.403Z,18.28
2019-06-07T06:01:45.022Z,18.20
2019-06-07T06:02:25.111Z,18.31
2019-06-07T06:03:22.367Z,18.37
2019-06-07T06:04:22.355Z,18.31
2019-06-07T06:05:33.632Z,18.34
2019-06-07T06:06:23.324Z,18.41
2019-06-07T06:07:22.312Z,18.43
2019-06-07T06:08:22.314Z,18.37
2019-06-07T06:09:22.325Z,18.50
2019-06-07T06:10:22.285Z,18.60
2019-06-07T06:11:22.272Z,18.60
2019-06-07T06:12:34.722Z,18.65
2019-06-07T06:13:23.255Z,18.80
2019-06-07T06:14:22.937Z,18.81
2019-06-07T06:15:41.466Z,18.95
2019-06-07T06:16:23.219Z,18.99
2019-06-07T06:17:22.203Z,19.11
2019-06-07T06:18:22.209Z,19.04
2019-06-07T06:19:22.181Z,19.19
2019-06-07T06:20:22.186Z,19.31
2019-06-07T06:21:22.370Z,19.47
2019-06-07T06:22:22.150Z,19.59
2019-06-07T06:23:22.145Z,19.54
2019-06-07T06:24:22.146Z,19.62
2019-06-07T06:25:32.579Z,19.63
2019-06-07T06:26:23.114Z,19.73
2019-06-07T06:28:02.696Z,19.91
2019-06-07T06:28:23.095Z,19.85
2019-06-07T06:29:22.082Z,19.92
2019-06-07T06:30:22.076Z,20.07
2019-06-07T06:31:22.052Z,20.22
2019-06-07T06:33:33.708Z,20.48
2019-06-07T06:34:23.028Z,20.58
2019-06-07T06:35:22.032Z,20.70
2019-06-07T06:36:22.454Z,20.78
2019-06-07T06:37:22.002Z,20.97
2019-06-07T06:38:22.084Z,21.02
2019-06-07T06:39:21.968Z,21.30
2019-06-07T06:40:21.963Z,21.43
2019-06-07T06:41:21.965Z,21.66
2019-06-07T06:42:21.942Z,21.92
2019-06-07T06:43:21.933Z,22.25
2019-06-07T06:44:22.648Z,22.47
2019-06-07T06:45:21.913Z,22.76
2019-06-07T06:46:38.220Z,23.17
2019-06-07T06:47:22.886Z,23.50
2019-06-07T06:48:21.996Z,23.86
2019-06-07T06:49:21.876Z,24.28
2019-06-07T06:50:21.871Z,24.68
2019-06-07T06:51:21.852Z,25.13
2019-06-07T06:52:21.833Z,25.60
2019-06-07T06:53:21.829Z,26.10
2019-06-07T06:54:39.384Z,26.47
2019-06-07T06:55:22.825Z,26.89
2019-06-07T06:56:21.782Z,27.25
2019-06-07T06:57:21.770Z,27.63
2019-06-07T06:58:21.771Z,28.05
2019-06-07T06:59:38.141Z,28.64
2019-06-07T07:00:42.756Z,29.35
2019-06-07T07:01:22.759Z,30.09
2019-06-07T07:02:21.719Z,30.77
2019-06-07T07:03:56.019Z,31.40
2019-06-07T07:04:22.692Z,31.94
2019-06-07T07:05:21.683Z,32.48
2019-06-07T07:06:26.440Z,32.83
2019-06-07T07:07:21.662Z,33.17
2019-06-07T07:08:21.651Z,33.55
2019-06-07T07:09:21.640Z,33.81
2019-06-07T07:10:21.649Z,33.45
2019-06-07T07:11:23.206Z,33.07
2019-06-07T07:12:21.828Z,32.73
2019-06-07T07:13:21.640Z,32.96
2019-06-07T07:14:21.601Z,32.86
2019-06-07T07:15:21.585Z,33.15
2019-06-07T07:16:21.560Z,32.83
2019-06-07T07:17:46.187Z,33.55
2019-06-07T07:18:22.543Z,34.20
2019-06-07T07:19:21.530Z,34.40
2019-06-07T07:20:21.592Z,34.18
2019-06-07T07:21:21.545Z,34.14
2019-06-07T07:22:21.520Z,34.70
2019-06-07T07:23:21.506Z,34.81
2019-06-07T07:24:22.502Z,34.13
2019-06-07T07:25:21.467Z,34.27
2019-06-07T07:26:21.480Z,34.27
2019-06-07T07:27:21.467Z,33.81
2019-06-07T07:28:21.430Z,33.53
2019-06-07T07:29:21.432Z,33.64
2019-06-07T07:30:37.554Z,33.65
2019-06-07T07:31:22.420Z,33.65
2019-06-07T07:32:21.415Z,34.16
2019-06-07T07:33:21.382Z,34.90
2019-06-07T07:34:33.560Z,35.67
2019-06-07T07:35:22.377Z,36.28
2019-06-07T07:36:38.025Z,36.37
2019-06-07T07:37:22.393Z,36.54
2019-06-07T07:38:21.332Z,36.62
2019-06-07T07:39:21.351Z,36.54
2019-06-07T07:40:56.166Z,36.28
2019-06-07T07:41:22.312Z,36.62
2019-06-07T07:42:21.909Z,37.10
2019-06-07T07:43:21.550Z,36.64
2019-06-07T07:44:21.277Z,36.89
2019-06-07T07:45:21.314Z,37.49
2019-06-07T07:46:30.289Z,38.14
2019-06-07T07:47:22.235Z,38.50
2019-06-07T07:48:21.233Z,38.82
2019-06-07T07:49:21.226Z,39.71
2019-06-07T07:50:21.229Z,40.31
2019-06-07T07:51:21.190Z,40.24
2019-06-07T07:52:21.173Z,39.90
2019-06-07T07:53:21.366Z,39.75
2019-06-07T07:54:21.200Z,39.26
2019-06-07T07:55:21.228Z,39.18
2019-06-07T07:56:21.143Z,39.24
2019-06-07T07:57:21.128Z,40.08
2019-06-07T07:58:21.115Z,40.35
2019-06-07T07:59:40.695Z,40.85
2019-06-07T08:00:52.406Z,40.63
2019-06-07T08:01:22.119Z,39.48
2019-06-07T08:02:21.094Z,38.99
2019-06-07T08:03:21.272Z,38.83
2019-06-07T08:04:39.610Z,38.86
2019-06-07T08:05:28.949Z,39.56
2019-06-07T08:06:22.053Z,39.49
2019-06-07T08:07:21.027Z,39.41
2019-06-07T08:08:21.075Z,40.08
2019-06-07T08:09:21.033Z,41.18
2019-06-07T08:10:21.238Z,42.58
2019-06-07T08:11:20.984Z,43.35
2019-06-07T08:12:21.238Z,43.65
2019-06-07T08:13:25.588Z,44.26
2019-06-07T08:14:22.060Z,44.71
2019-06-07T08:15:20.980Z,45.31
2019-06-07T08:16:20.954Z,45.15
2019-06-07T08:17:20.976Z,45.05
2019-06-07T08:18:20.964Z,45.70
2019-06-07T08:19:20.904Z,46.43
2019-06-07T08:20:20.914Z,47.39
2019-06-07T08:21:26.474Z,47.93
2019-06-07T08:22:21.901Z,47.80
2019-06-07T08:23:20.895Z,46.74
2019-06-07T08:24:20.868Z,45.87
2019-06-07T08:25:20.856Z,46.04
2019-06-07T08:26:20.882Z,45.80
2019-06-07T08:27:26.480Z,45.22
2019-06-07T08:28:21.832Z,43.80
2019-06-07T08:29:20.803Z,44.03
2019-06-07T08:30:55.145Z,44.20
2019-06-07T08:31:21.835Z,42.95
2019-06-07T08:32:20.838Z,43.16
2019-06-07T08:33:27.130Z,44.13
2019-06-07T08:34:21.787Z,42.88
2019-06-07T08:36:02.996Z,41.44
2019-06-07T08:36:40.358Z,40.82
2019-06-07T08:37:21.726Z,40.51
2019-06-07T08:38:27.644Z,41.25
2019-06-07T08:39:21.776Z,42.53
2019-06-07T08:40:20.761Z,43.19
2019-06-07T08:41:20.688Z,43.41
2019-06-07T08:42:25.252Z,44.15
2019-06-07T08:43:21.678Z,44.98
2019-06-07T08:44:23.909Z,45.92
2019-06-07T08:45:20.654Z,47.03
2019-06-07T08:46:20.686Z,47.42
2019-06-07T08:47:21.282Z,46.58
2019-06-07T08:48:27.961Z,44.65
2019-06-07T08:49:21.630Z,43.61
2019-06-07T08:50:20.874Z,44.01
2019-06-07T08:51:20.626Z,44.30
2019-06-07T08:52:20.589Z,42.82
2019-06-07T08:53:20.572Z,40.53
2019-06-07T08:54:23.324Z,40.15
2019-06-07T08:55:20.556Z,39.92
2019-06-07T08:56:20.673Z,36.95
2019-06-07T08:57:21.897Z,34.73
2019-06-07T08:58:20.557Z,33.20
2019-06-07T08:59:20.540Z,32.19
2019-06-07T09:01:21.506Z,30.78
2019-06-07T09:02:23.842Z,30.37
2019-06-07T09:03:20.496Z,29.95
2019-06-07T09:04:20.467Z,29.66
2019-06-07T09:05:20.463Z,29.61
2019-06-07T09:07:01.909Z,29.75
2019-06-07T09:07:22.154Z,30.81
2019-06-07T09:08:29.819Z,31.58
2019-06-07T09:09:21.410Z,31.51
2019-06-07T09:10:20.408Z,31.43
2019-06-07T09:11:20.401Z,32.64
2019-06-07T09:12:25.764Z,33.81
2019-06-07T09:13:20.377Z,34.16
2019-06-07T09:14:20.359Z,33.77
2019-06-07T09:15:23.352Z,36.89
2019-06-07T09:16:20.337Z,39.43
2019-06-07T09:17:20.334Z,41.63
2019-06-07T09:18:43.243Z,43.72
2019-06-07T09:19:21.349Z,45.31
2019-06-07T09:20:35.648Z,46.31
2019-06-07T09:21:21.295Z,47.54
2019-06-07T09:22:20.284Z,48.57
2019-06-07T09:23:20.292Z,49.21
2019-06-07T09:24:20.279Z,49.61
2019-06-07T09:25:21.662Z,49.95
2019-06-07T09:26:20.237Z,49.32
2019-06-07T09:27:20.241Z,47.44
2019-06-07T09:28:20.943Z,46.48
2019-06-07T09:29:20.238Z,45.84
2019-06-07T09:30:20.200Z,44.86
2019-06-07T09:31:20.210Z,44.03
2019-06-07T09:32:20.217Z,44.17
2019-06-07T09:33:20.182Z,44.96
2019-06-07T09:34:20.187Z,45.47
2019-06-07T09:35:20.180Z,45.89
2019-06-07T09:36:20.178Z,46.66
2019-06-07T09:38:26.268Z,48.89
2019-06-07T09:39:21.120Z,48.98
2019-06-07T09:40:27.306Z,49.28
2019-06-07T09:41:21.126Z,49.18
2019-06-07T09:42:20.100Z,47.74
2019-06-07T09:44:25.796Z,46.13
2019-06-07T09:45:21.080Z,46.61
2019-06-07T09:46:20.404Z,46.67
2019-06-07T09:47:31.948Z,46.41
2019-06-07T09:49:01.478Z,46.99
2019-06-07T09:49:32.006Z,47.96
2019-06-07T09:50:21.029Z,48.77
2019-06-07T09:51:20.713Z,48.55
2019-06-07T09:52:20.073Z,47.45
2019-06-07T09:53:23.085Z,47.01
2019-06-07T09:55:03.300Z,47.53
2019-06-07T09:55:24.876Z,48.07
2019-06-07T09:56:19.979Z,48.55
2019-06-07T09:57:19.985Z,48.24
2019-06-07T09:59:21.009Z,46.69
2019-06-07T10:00:39.755Z,47.75
2019-06-07T10:01:20.931Z,48.52
2019-06-07T10:02:19.938Z,48.57
2019-06-07T10:03:22.329Z,47.39
2019-06-07T10:04:30.793Z,45.08
2019-06-07T10:05:20.917Z,41.06
2019-06-07T10:06:19.904Z,39.51
2019-06-07T10:07:31.242Z,38.23
2019-06-07T10:09:26.273Z,37.39
2019-06-07T10:11:20.851Z,39.03
2019-06-07T10:12:19.886Z,41.38
2019-06-07T10:13:19.842Z,42.65
2019-06-07T10:14:19.821Z,42.89
2019-06-07T10:15:19.808Z,40.43
2019-06-07T10:16:20.294Z,38.86
2019-06-07T10:17:19.817Z,38.76
2019-06-07T10:18:19.805Z,38.87
2019-06-07T10:19:19.786Z,38.91
2019-06-07T10:20:19.769Z,37.99
2019-06-07T10:21:19.802Z,37.21
2019-06-07T10:22:19.754Z,36.49
2019-06-07T10:23:19.739Z,35.17
2019-06-07T10:24:19.729Z,33.68
2019-06-07T10:25:19.731Z,33.42
2019-06-07T10:26:19.727Z,35.04
2019-06-07T10:27:19.700Z,36.00
2019-06-07T10:28:19.701Z,36.51
2019-06-07T10:29:19.695Z,34.74
2019-06-07T10:30:19.676Z,33.80
2019-06-07T10:31:19.706Z,33.11
2019-06-07T10:32:19.658Z,33.05
2019-06-07T10:33:19.660Z,34.62
2019-06-07T10:34:19.640Z,36.04
2019-06-07T10:35:19.634Z,37.74
2019-06-07T10:36:19.609Z,39.17
2019-06-07T10:37:19.665Z,40.24
2019-06-07T10:38:19.597Z,40.56
2019-06-07T10:39:19.583Z,39.93
2019-06-07T10:40:19.567Z,40.81
2019-06-07T10:41:19.568Z,42.14
2019-06-07T10:42:19.573Z,42.26
2019-06-07T10:43:19.540Z,41.85
2019-06-07T10:44:19.550Z,41.52
2019-06-07T10:45:19.529Z,39.92
2019-06-07T10:46:19.517Z,39.03
2019-06-07T10:47:19.547Z,39.11
2019-06-07T10:48:19.502Z,40.26
2019-06-07T10:49:19.505Z,41.68
2019-06-07T10:50:19.490Z,42.20
2019-06-07T10:51:19.478Z,42.57
2019-06-07T10:52:19.462Z,42.04
2019-06-07T10:53:19.481Z,42.17
2019-06-07T10:54:26.689Z,43.62
2019-06-07T10:55:20.444Z,44.75
2019-06-07T10:56:19.427Z,43.81
2019-06-07T10:57:19.990Z,40.95
2019-06-07T10:58:19.417Z,39.14
2019-06-07T10:59:19.520Z,38.77
2019-06-07T11:00:19.394Z,39.93
2019-06-07T11:01:19.387Z,40.09
2019-06-07T11:02:19.382Z,40.16
2019-06-07T11:03:19.370Z,41.21
2019-06-07T11:04:19.373Z,41.47
2019-06-07T11:05:19.380Z,38.79
2019-06-07T11:06:19.360Z,36.20
2019-06-07T11:07:19.342Z,34.51
2019-06-07T11:08:19.495Z,32.93
2019-06-07T11:09:19.319Z,33.14
2019-06-07T11:10:22.046Z,34.62
2019-06-07T11:11:19.412Z,35.30
2019-06-07T11:12:19.295Z,35.18
2019-06-07T11:13:19.286Z,34.54
2019-06-07T11:14:19.278Z,32.89
2019-06-07T11:15:19.278Z,31.84
2019-06-07T11:16:19.502Z,33.81
2019-06-07T11:17:19.271Z,34.62
2019-06-07T11:18:19.243Z,33.47
2019-06-07T11:19:19.800Z,31.99
2019-06-07T11:20:19.219Z,32.65
2019-06-07T11:21:19.221Z,32.73
2019-06-07T11:22:19.256Z,33.02
2019-06-07T11:23:19.200Z,32.43
2019-06-07T11:24:24.412Z,30.78
2019-06-07T11:25:20.185Z,30.43
2019-06-07T11:26:19.222Z,31.90
2019-06-07T11:27:19.320Z,32.48
2019-06-07T11:28:19.181Z,34.05
2019-06-07T11:29:19.279Z,34.88
2019-06-07T11:30:19.180Z,33.99
2019-06-07T11:31:19.116Z,33.76
2019-06-07T11:32:19.105Z,34.05
2019-06-07T11:33:19.104Z,34.99
2019-06-07T11:34:19.105Z,35.67
2019-06-07T11:35:19.195Z,35.61
2019-06-07T11:36:19.075Z,35.83
2019-06-07T11:37:19.180Z,36.89
2019-06-07T11:38:19.297Z,36.99
2019-06-07T11:39:19.060Z,37.42
2019-06-07T11:40:34.292Z,38.52
2019-06-07T11:41:20.029Z,39.80
2019-06-07T11:42:20.069Z,40.97
2019-06-07T11:43:19.147Z,41.50
2019-06-07T11:44:18.997Z,42.02
2019-06-07T11:45:18.995Z,42.33
2019-06-07T11:46:18.981Z,42.25
2019-06-07T11:47:19.023Z,41.94
2019-06-07T11:48:18.963Z,41.85
2019-06-07T11:49:21.635Z,41.31
2019-06-07T11:50:18.950Z,40.68
2019-06-07T11:51:19.000Z,39.67
2019-06-07T11:52:18.935Z,38.91
2019-06-07T11:53:19.941Z,38.19
2019-06-07T11:54:20.379Z,37.90
2019-06-07T11:55:19.206Z,37.10
2019-06-07T11:56:18.901Z,36.39
2019-06-07T11:57:18.892Z,36.36
2019-06-07T11:58:21.770Z,35.80
2019-06-07T11:59:18.890Z,35.24
2019-06-07T12:00:18.877Z,34.88
2019-06-07T12:01:18.867Z,34.67
2019-06-07T12:02:18.856Z,33.92
2019-06-07T12:03:18.851Z,33.92
2019-06-07T12:04:32.351Z,34.83
2019-06-07T12:05:20.434Z,36.27
2019-06-07T12:06:18.822Z,37.53
2019-06-07T12:07:19.973Z,37.80
2019-06-07T12:08:18.807Z,36.84
2019-06-07T12:09:18.864Z,36.24
2019-06-07T12:10:22.493Z,35.34
2019-06-07T12:11:18.789Z,35.24
2019-06-07T12:12:20.391Z,35.93
2019-06-07T12:13:19.023Z,36.67
2019-06-07T12:14:19.358Z,36.99
2019-06-07T12:15:19.342Z,37.44
2019-06-07T12:16:19.408Z,38.11
2019-06-07T12:17:19.610Z,37.64
2019-06-07T12:18:19.712Z,35.83
2019-06-07T12:19:19.798Z,35.36
2019-06-07T12:20:20.874Z,34.40
2019-06-07T12:21:19.874Z,33.90
2019-06-07T12:22:19.926Z,34.36
2019-06-07T12:23:20.042Z,34.77
2019-06-07T12:24:19.808Z,35.17
2019-06-07T12:25:23.328Z,35.33
2019-06-07T12:26:20.632Z,35.18
2019-06-07T12:27:18.871Z,34.47
2019-06-07T12:28:19.024Z,34.10
2019-06-07T12:29:21.493Z,34.05
2019-06-07T12:30:26.017Z,33.20
2019-06-07T12:31:19.625Z,33.04
2019-06-07T12:32:19.560Z,32.80
2019-06-07T12:33:19.693Z,32.65
2019-06-07T12:34:19.489Z,32.29
2019-06-07T12:35:19.992Z,32.16
2019-06-07T12:36:19.834Z,32.01
2019-06-07T12:37:22.060Z,31.33
2019-06-07T12:38:21.142Z,31.49
2019-06-07T12:39:18.568Z,31.54
2019-06-07T12:40:27.696Z,31.87
2019-06-07T12:41:20.337Z,32.14
2019-06-07T12:42:18.601Z,32.86
2019-06-07T12:43:19.121Z,33.43
2019-06-07T12:44:18.676Z,34.01
2019-06-07T12:45:42.325Z,34.48
2019-06-07T12:46:25.959Z,34.29
2019-06-07T12:47:20.997Z,34.23
2019-06-07T12:48:21.260Z,34.80
2019-06-07T12:49:19.480Z,34.89
2019-06-07T12:50:19.529Z,34.14
2019-06-07T12:51:19.406Z,33.55
2019-06-07T12:52:20.115Z,33.65
2019-06-07T12:53:24.007Z,33.12
2019-06-07T12:54:19.695Z,32.18
2019-06-07T12:55:20.431Z,32.36
2019-06-07T12:56:19.746Z,32.03
2019-06-07T12:57:18.410Z,31.17
2019-06-07T12:58:25.827Z,30.63
2019-06-07T12:59:20.055Z,30.70
2019-06-07T13:00:18.378Z,31.49